sensor_id;sensor_type;location;lat;lon;timestamp;temperature;humidity
64874;HTU21D;51367;45.204;38.576;2022-12-07T00:01:36;-0.56;78.71
64874;HTU21D;51367;45.204;38.576;2022-12-07T00:04:05;-0.57;78.93
64874;HTU21D;51367;45.204;38.576;2022-12-07T00:06:40;-0.58;78.95
64874;HTU21D;51367;45.204;38.576;2022-12-07T00:09:09;-0.60;78.91
64874;HTU21D;51367;45.204;38.576;2022-12-07T00:11:36;-0.60;78.95
64874;HTU21D;51367;45.204;38.576;2022-12-07T00:14:08;-0.60;79.08
64874;HTU21D;51367;45.204;38.576;2022-12-07T00:16:35;-0.65;79.26
64874;HTU21D;51367;45.204;38.576;2022-12-07T00:19:03;-0.68;79.21
64874;HTU21D;51367;45.204;38.576;2022-12-07T00:21:31;-0.71;79.21
64874;HTU21D;51367;45.204;38.576;2022-12-07T00:23:58;-0.73;79.21
64874;HTU21D;51367;45.204;38.576;2022-12-07T00:26:27;-0.76;79.33
64874;HTU21D;51367;45.204;38.576;2022-12-07T00:28:55;-0.77;79.34
64874;HTU21D;51367;45.204;38.576;2022-12-07T00:31:25;-0.80;79.44
64874;HTU21D;51367;45.204;38.576;2022-12-07T00:33:51;-0.82;79.44
64874;HTU21D;51367;45.204;38.576;2022-12-07T00:36:19;-0.84;79.62
64874;HTU21D;51367;45.204;38.576;2022-12-07T00:38:46;-0.87;79.61
64874;HTU21D;51367;45.204;38.576;2022-12-07T00:41:20;-0.88;79.65
64874;HTU21D;51367;45.204;38.576;2022-12-07T00:43:48;-0.89;79.86
64874;HTU21D;51367;45.204;38.576;2022-12-07T00:46:15;-0.91;80.01
64874;HTU21D;51367;45.204;38.576;2022-12-07T00:48:42;-0.95;80.19
64874;HTU21D;51367;45.204;38.576;2022-12-07T00:51:10;-0.96;80.12
64874;HTU21D;51367;45.204;38.576;2022-12-07T00:53:36;-0.96;80.21
64874;HTU21D;51367;45.204;38.576;2022-12-07T00:56:14;-0.95;80.48
64874;HTU21D;51367;45.204;38.576;2022-12-07T00:58:41;-0.96;80.85
64874;HTU21D;51367;45.204;38.576;2022-12-07T01:01:08;-0.97;81.02
64874;HTU21D;51367;45.204;38.576;2022-12-07T01:03:35;-0.97;81.04
64874;HTU21D;51367;45.204;38.576;2022-12-07T01:06:01;-0.99;81.43
64874;HTU21D;51367;45.204;38.576;2022-12-07T01:08:28;-0.99;81.77
64874;HTU21D;51367;45.204;38.576;2022-12-07T01:11:06;-0.98;81.68
64874;HTU21D;51367;45.204;38.576;2022-12-07T01:13:34;-0.98;82.06
64874;HTU21D;51367;45.204;38.576;2022-12-07T01:16:02;-0.97;82.07
64874;HTU21D;51367;45.204;38.576;2022-12-07T01:18:30;-0.96;82.10
64874;HTU21D;51367;45.204;38.576;2022-12-07T01:23:35;-0.98;82.09
64874;HTU21D;51367;45.204;38.576;2022-12-07T01:26:05;-1.00;82.26
64874;HTU21D;51367;45.204;38.576;2022-12-07T01:28:31;-1.03;82.21
64874;HTU21D;51367;45.204;38.576;2022-12-07T01:33:30;-1.12;82.20
64874;HTU21D;51367;45.204;38.576;2022-12-07T01:36:06;-1.16;82.19
64874;HTU21D;51367;45.204;38.576;2022-12-07T01:38:33;-1.16;82.30
64874;HTU21D;51367;45.204;38.576;2022-12-07T01:41:01;-1.17;82.42
64874;HTU21D;51367;45.204;38.576;2022-12-07T01:43:29;-1.19;82.38
64874;HTU21D;51367;45.204;38.576;2022-12-07T01:45:55;-1.20;82.39
64874;HTU21D;51367;45.204;38.576;2022-12-07T01:48:34;-1.25;82.39
64874;HTU21D;51367;45.204;38.576;2022-12-07T01:51:06;-1.27;82.36
64874;HTU21D;51367;45.204;38.576;2022-12-07T01:53:36;-1.29;82.28
64874;HTU21D;51367;45.204;38.576;2022-12-07T01:56:04;-1.30;82.27
64874;HTU21D;51367;45.204;38.576;2022-12-07T01:58:31;-1.33;82.28
64874;HTU21D;51367;45.204;38.576;2022-12-07T02:00:57;-1.35;82.24
64874;HTU21D;51367;45.204;38.576;2022-12-07T02:03:29;-1.36;82.21
64874;HTU21D;51367;45.204;38.576;2022-12-07T02:05:57;-1.40;82.26
64874;HTU21D;51367;45.204;38.576;2022-12-07T02:08:25;-1.43;82.25
64874;HTU21D;51367;45.204;38.576;2022-12-07T02:10:51;-1.44;82.30
64874;HTU21D;51367;45.204;38.576;2022-12-07T02:13:23;-1.47;82.27
64874;HTU21D;51367;45.204;38.576;2022-12-07T02:16:09;-1.48;82.30
64874;HTU21D;51367;45.204;38.576;2022-12-07T02:30:16;-1.56;82.78
64874;HTU21D;51367;45.204;38.576;2022-12-07T02:36:06;-1.62;82.69
64874;HTU21D;51367;45.204;38.576;2022-12-07T02:38:44;-1.64;82.68
64874;HTU21D;51367;45.204;38.576;2022-12-07T02:44:27;-1.69;82.79
64874;HTU21D;51367;45.204;38.576;2022-12-07T02:46:58;-1.68;82.99
64874;HTU21D;51367;45.204;38.576;2022-12-07T02:49:26;-1.64;83.13
64874;HTU21D;51367;45.204;38.576;2022-12-07T02:51:53;-1.64;83.21
64874;HTU21D;51367;45.204;38.576;2022-12-07T02:54:20;-1.62;83.40
64874;HTU21D;51367;45.204;38.576;2022-12-07T02:56:51;-1.59;83.37
64874;HTU21D;51367;45.204;38.576;2022-12-07T03:13:52;-1.64;83.27
64874;HTU21D;51367;45.204;38.576;2022-12-07T03:16:23;-1.67;83.22
64874;HTU21D;51367;45.204;38.576;2022-12-07T03:18:56;-1.68;83.23
64874;HTU21D;51367;45.204;38.576;2022-12-07T03:21:31;-1.72;83.09
64874;HTU21D;51367;45.204;38.576;2022-12-07T03:24:00;-1.73;83.08
64874;HTU21D;51367;45.204;38.576;2022-12-07T03:26:36;-1.75;83.04
64874;HTU21D;51367;45.204;38.576;2022-12-07T03:29:11;-1.76;83.16
64874;HTU21D;51367;45.204;38.576;2022-12-07T03:31:42;-1.80;83.13
64874;HTU21D;51367;45.204;38.576;2022-12-07T03:34:25;-1.82;83.11
64874;HTU21D;51367;45.204;38.576;2022-12-07T03:37:08;-1.83;83.11
64874;HTU21D;51367;45.204;38.576;2022-12-07T03:42:29;-1.85;83.22
64874;HTU21D;51367;45.204;38.576;2022-12-07T03:44:57;-1.86;83.23
64874;HTU21D;51367;45.204;38.576;2022-12-07T03:47:43;-1.86;83.31
64874;HTU21D;51367;45.204;38.576;2022-12-07T03:50:32;-1.89;83.21
64874;HTU21D;51367;45.204;38.576;2022-12-07T03:53:15;-1.89;83.25
64874;HTU21D;51367;45.204;38.576;2022-12-07T03:55:44;-1.91;83.20
64874;HTU21D;51367;45.204;38.576;2022-12-07T03:58:15;-1.92;83.20
64874;HTU21D;51367;45.204;38.576;2022-12-07T04:00:43;-1.93;83.17
64874;HTU21D;51367;45.204;38.576;2022-12-07T04:03:10;-1.91;83.20
64874;HTU21D;51367;45.204;38.576;2022-12-07T04:05:37;-1.94;83.20
64874;HTU21D;51367;45.204;38.576;2022-12-07T04:08:04;-1.94;83.11
64874;HTU21D;51367;45.204;38.576;2022-12-07T04:10:30;-1.95;83.11
64874;HTU21D;51367;45.204;38.576;2022-12-07T04:12:56;-1.94;83.16
64874;HTU21D;51367;45.204;38.576;2022-12-07T04:15:22;-1.94;83.26
64874;HTU21D;51367;45.204;38.576;2022-12-07T04:17:49;-1.94;83.26
64874;HTU21D;51367;45.204;38.576;2022-12-07T04:20:15;-1.95;83.19
64874;HTU21D;51367;45.204;38.576;2022-12-07T04:22:41;-1.95;83.18
64874;HTU21D;51367;45.204;38.576;2022-12-07T04:25:07;-1.94;83.16
64874;HTU21D;51367;45.204;38.576;2022-12-07T04:27:34;-1.94;83.16
64874;HTU21D;51367;45.204;38.576;2022-12-07T04:30:00;-1.94;83.19
64874;HTU21D;51367;45.204;38.576;2022-12-07T04:32:26;-1.95;83.08
64874;HTU21D;51367;45.204;38.576;2022-12-07T04:34:52;-1.98;83.06
64874;HTU21D;51367;45.204;38.576;2022-12-07T04:37:17;-1.94;83.10
64874;HTU21D;51367;45.204;38.576;2022-12-07T04:39:44;-1.93;83.07
64874;HTU21D;51367;45.204;38.576;2022-12-07T04:42:12;-1.93;83.08
64874;HTU21D;51367;45.204;38.576;2022-12-07T04:44:39;-1.93;83.06
64874;HTU21D;51367;45.204;38.576;2022-12-07T04:54:08;-1.97;82.94
64874;HTU21D;51367;45.204;38.576;2022-12-07T04:57:11;-1.95;82.99
64874;HTU21D;51367;45.204;38.576;2022-12-07T04:59:37;-1.95;83.14
64874;HTU21D;51367;45.204;38.576;2022-12-07T05:06:02;-1.95;83.42
64874;HTU21D;51367;45.204;38.576;2022-12-07T05:14:53;-1.98;83.71
64874;HTU21D;51367;45.204;38.576;2022-12-07T05:17:19;-2.00;83.76
64874;HTU21D;51367;45.204;38.576;2022-12-07T05:19:45;-2.00;83.87
64874;HTU21D;51367;45.204;38.576;2022-12-07T05:22:11;-2.00;83.89
64874;HTU21D;51367;45.204;38.576;2022-12-07T05:24:37;-2.00;84.01
64874;HTU21D;51367;45.204;38.576;2022-12-07T05:27:03;-1.97;84.17
64874;HTU21D;51367;45.204;38.576;2022-12-07T05:29:29;-1.94;84.43
64874;HTU21D;51367;45.204;38.576;2022-12-07T05:31:54;-1.90;84.51
64874;HTU21D;51367;45.204;38.576;2022-12-07T05:34:20;-1.88;84.57
64874;HTU21D;51367;45.204;38.576;2022-12-07T05:36:46;-1.87;84.45
64874;HTU21D;51367;45.204;38.576;2022-12-07T05:39:13;-1.86;84.50
64874;HTU21D;51367;45.204;38.576;2022-12-07T05:41:39;-1.85;84.46
64874;HTU21D;51367;45.204;38.576;2022-12-07T05:44:23;-1.84;84.39
64874;HTU21D;51367;45.204;38.576;2022-12-07T05:46:49;-1.85;84.29
64874;HTU21D;51367;45.204;38.576;2022-12-07T05:49:15;-1.85;84.21
64874;HTU21D;51367;45.204;38.576;2022-12-07T05:51:41;-1.83;84.17
64874;HTU21D;51367;45.204;38.576;2022-12-07T05:54:07;-1.79;84.18
64874;HTU21D;51367;45.204;38.576;2022-12-07T05:56:33;-1.77;84.11
64874;HTU21D;51367;45.204;38.576;2022-12-07T05:58:59;-1.74;84.06
64874;HTU21D;51367;45.204;38.576;2022-12-07T06:01:43;-1.70;84.02
64874;HTU21D;51367;45.204;38.576;2022-12-07T06:04:09;-1.69;84.04
64874;HTU21D;51367;45.204;38.576;2022-12-07T06:06:36;-1.65;84.03
64874;HTU21D;51367;45.204;38.576;2022-12-07T06:09:03;-1.65;83.96
64874;HTU21D;51367;45.204;38.576;2022-12-07T06:11:29;-1.62;83.96
64874;HTU21D;51367;45.204;38.576;2022-12-07T06:14:13;-1.60;83.93
64874;HTU21D;51367;45.204;38.576;2022-12-07T06:16:39;-1.56;83.87
64874;HTU21D;51367;45.204;38.576;2022-12-07T06:19:05;-1.54;83.82
64874;HTU21D;51367;45.204;38.576;2022-12-07T06:21:31;-1.48;83.81
64874;HTU21D;51367;45.204;38.576;2022-12-07T06:23:57;-1.46;83.78
64874;HTU21D;51367;45.204;38.576;2022-12-07T06:26:23;-1.44;83.74
64874;HTU21D;51367;45.204;38.576;2022-12-07T06:28:49;-1.38;83.76
64874;HTU21D;51367;45.204;38.576;2022-12-07T06:31:15;-1.35;83.71
64874;HTU21D;51367;45.204;38.576;2022-12-07T06:33:42;-1.33;83.73
64874;HTU21D;51367;45.204;38.576;2022-12-07T06:36:08;-1.32;83.65
64874;HTU21D;51367;45.204;38.576;2022-12-07T06:38:34;-1.32;83.58
64874;HTU21D;51367;45.204;38.576;2022-12-07T06:41:00;-1.30;83.60
64874;HTU21D;51367;45.204;38.576;2022-12-07T06:43:26;-1.29;83.53
64874;HTU21D;51367;45.204;38.576;2022-12-07T06:45:53;-1.29;83.50
64874;HTU21D;51367;45.204;38.576;2022-12-07T06:48:19;-1.30;83.45
64874;HTU21D;51367;45.204;38.576;2022-12-07T06:50:45;-1.30;83.32
64874;HTU21D;51367;45.204;38.576;2022-12-07T06:53:12;-1.33;83.33
64874;HTU21D;51367;45.204;38.576;2022-12-07T06:55:38;-1.32;83.37
64874;HTU21D;51367;45.204;38.576;2022-12-07T06:58:04;-1.30;83.46
64874;HTU21D;51367;45.204;38.576;2022-12-07T07:00:30;-1.31;83.59
64874;HTU21D;51367;45.204;38.576;2022-12-07T07:02:56;-1.30;83.65
64874;HTU21D;51367;45.204;38.576;2022-12-07T07:05:22;-1.28;83.68
64874;HTU21D;51367;45.204;38.576;2022-12-07T07:07:51;-1.28;83.84
64874;HTU21D;51367;45.204;38.576;2022-12-07T07:10:17;-1.27;83.97
64874;HTU21D;51367;45.204;38.576;2022-12-07T07:12:43;-1.25;84.02
64874;HTU21D;51367;45.204;38.576;2022-12-07T07:15:09;-1.20;84.10
64874;HTU21D;51367;45.204;38.576;2022-12-07T07:17:37;-1.18;84.19
64874;HTU21D;51367;45.204;38.576;2022-12-07T07:20:04;-1.14;84.26
64874;HTU21D;51367;45.204;38.576;2022-12-07T07:22:30;-1.13;84.33
64874;HTU21D;51367;45.204;38.576;2022-12-07T07:24:56;-1.10;84.42
64874;HTU21D;51367;45.204;38.576;2022-12-07T07:27:22;-1.06;84.49
64874;HTU21D;51367;45.204;38.576;2022-12-07T07:29:48;-1.02;84.58
64874;HTU21D;51367;45.204;38.576;2022-12-07T07:32:14;-0.95;84.76
64874;HTU21D;51367;45.204;38.576;2022-12-07T07:34:40;-0.83;84.81
64874;HTU21D;51367;45.204;38.576;2022-12-07T07:37:06;-0.71;84.85
64874;HTU21D;51367;45.204;38.576;2022-12-07T07:39:32;-0.62;84.90
64874;HTU21D;51367;45.204;38.576;2022-12-07T07:41:58;-0.55;84.79
64874;HTU21D;51367;45.204;38.576;2022-12-07T07:44:26;-0.51;84.71
64874;HTU21D;51367;45.204;38.576;2022-12-07T07:46:52;-0.49;84.62
64874;HTU21D;51367;45.204;38.576;2022-12-07T07:49:18;-0.46;84.61
64874;HTU21D;51367;45.204;38.576;2022-12-07T07:51:44;-0.45;84.55
64874;HTU21D;51367;45.204;38.576;2022-12-07T07:54:10;-0.43;84.53
64874;HTU21D;51367;45.204;38.576;2022-12-07T07:56:36;-0.38;84.55
64874;HTU21D;51367;45.204;38.576;2022-12-07T07:59:02;-0.36;84.55
64874;HTU21D;51367;45.204;38.576;2022-12-07T08:01:28;-0.32;84.61
64874;HTU21D;51367;45.204;38.576;2022-12-07T08:03:54;-0.32;84.51
64874;HTU21D;51367;45.204;38.576;2022-12-07T08:06:20;-0.32;84.47
64874;HTU21D;51367;45.204;38.576;2022-12-07T08:08:46;-0.28;84.51
64874;HTU21D;51367;45.204;38.576;2022-12-07T08:11:12;-0.22;84.48
64874;HTU21D;51367;45.204;38.576;2022-12-07T08:13:38;-0.16;84.46
64874;HTU21D;51367;45.204;38.576;2022-12-07T08:16:06;-0.10;84.45
64874;HTU21D;51367;45.204;38.576;2022-12-07T08:18:35;-0.02;84.46
64874;HTU21D;51367;45.204;38.576;2022-12-07T08:21:02;0.03;84.45
64874;HTU21D;51367;45.204;38.576;2022-12-07T08:23:29;0.09;84.44
64874;HTU21D;51367;45.204;38.576;2022-12-07T08:26:07;0.19;84.56
64874;HTU21D;51367;45.204;38.576;2022-12-07T08:28:33;0.23;84.45
64874;HTU21D;51367;45.204;38.576;2022-12-07T08:31:03;0.29;84.33
64874;HTU21D;51367;45.204;38.576;2022-12-07T08:33:30;0.31;84.22
64874;HTU21D;51367;45.204;38.576;2022-12-07T08:36:01;0.32;84.08
64874;HTU21D;51367;45.204;38.576;2022-12-07T08:38:27;0.31;83.98
64874;HTU21D;51367;45.204;38.576;2022-12-07T08:40:56;0.33;83.98
64874;HTU21D;51367;45.204;38.576;2022-12-07T08:43:23;0.37;84.07
64874;HTU21D;51367;45.204;38.576;2022-12-07T08:46:06;0.43;84.15
64874;HTU21D;51367;45.204;38.576;2022-12-07T08:48:37;0.49;84.19
64874;HTU21D;51367;45.204;38.576;2022-12-07T08:51:04;0.51;83.94
64874;HTU21D;51367;45.204;38.576;2022-12-07T08:53:31;0.54;83.91
64874;HTU21D;51367;45.204;38.576;2022-12-07T08:55:58;0.63;83.99
64874;HTU21D;51367;45.204;38.576;2022-12-07T08:58:24;0.77;84.10
64874;HTU21D;51367;45.204;38.576;2022-12-07T09:00:50;0.92;84.01
64874;HTU21D;51367;45.204;38.576;2022-12-07T09:03:16;1.02;83.82
64874;HTU21D;51367;45.204;38.576;2022-12-07T09:05:42;1.11;83.50
64874;HTU21D;51367;45.204;38.576;2022-12-07T09:08:08;1.18;83.35
64874;HTU21D;51367;45.204;38.576;2022-12-07T09:10:34;1.23;83.21
64874;HTU21D;51367;45.204;38.576;2022-12-07T09:13:00;1.25;82.99
64874;HTU21D;51367;45.204;38.576;2022-12-07T09:15:27;1.32;83.07
64874;HTU21D;51367;45.204;38.576;2022-12-07T09:17:54;1.37;83.00
64874;HTU21D;51367;45.204;38.576;2022-12-07T09:20:20;1.43;83.10
64874;HTU21D;51367;45.204;38.576;2022-12-07T09:22:46;1.51;83.10
64874;HTU21D;51367;45.204;38.576;2022-12-07T09:25:12;1.58;83.08
64874;HTU21D;51367;45.204;38.576;2022-12-07T09:27:38;1.63;82.93
64874;HTU21D;51367;45.204;38.576;2022-12-07T09:30:05;1.66;82.87
64874;HTU21D;51367;45.204;38.576;2022-12-07T09:32:32;1.70;82.81
64874;HTU21D;51367;45.204;38.576;2022-12-07T09:34:58;1.75;82.71
64874;HTU21D;51367;45.204;38.576;2022-12-07T09:37:24;1.81;82.81
64874;HTU21D;51367;45.204;38.576;2022-12-07T09:39:50;1.86;82.84
64874;HTU21D;51367;45.204;38.576;2022-12-07T09:44:52;2.02;82.94
64874;HTU21D;51367;45.204;38.576;2022-12-07T09:47:18;2.06;82.78
64874;HTU21D;51367;45.204;38.576;2022-12-07T09:49:44;2.10;82.72
64874;HTU21D;51367;45.204;38.576;2022-12-07T09:52:20;2.14;82.71
64874;HTU21D;51367;45.204;38.576;2022-12-07T09:54:50;2.17;82.62
64874;HTU21D;51367;45.204;38.576;2022-12-07T09:57:18;2.12;82.20
64874;HTU21D;51367;45.204;38.576;2022-12-07T09:59:46;2.07;82.24
64874;HTU21D;51367;45.204;38.576;2022-12-07T10:04:57;2.06;82.61
64874;HTU21D;51367;45.204;38.576;2022-12-07T10:07:24;2.06;82.61
64874;HTU21D;51367;45.204;38.576;2022-12-07T10:09:50;2.08;82.69
64874;HTU21D;51367;45.204;38.576;2022-12-07T10:12:16;2.10;82.75
64874;HTU21D;51367;45.204;38.576;2022-12-07T10:15:00;2.13;82.81
64874;HTU21D;51367;45.204;38.576;2022-12-07T10:20:21;2.22;82.73
64874;HTU21D;51367;45.204;38.576;2022-12-07T10:22:59;2.26;82.73
64874;HTU21D;51367;45.204;38.576;2022-12-07T10:25:36;2.28;82.65
64874;HTU21D;51367;45.204;38.576;2022-12-07T10:30:32;2.30;82.30
64874;HTU21D;51367;45.204;38.576;2022-12-07T10:32:59;2.34;82.31
64874;HTU21D;51367;45.204;38.576;2022-12-07T10:35:29;2.37;82.26
64874;HTU21D;51367;45.204;38.576;2022-12-07T10:37:58;2.39;82.19
64874;HTU21D;51367;45.204;38.576;2022-12-07T10:40:35;2.42;82.05
64874;HTU21D;51367;45.204;38.576;2022-12-07T10:56:59;2.56;81.65
64874;HTU21D;51367;45.204;38.576;2022-12-07T11:00:19;2.61;81.47
64874;HTU21D;51367;45.204;38.576;2022-12-07T11:13:52;2.89;80.78
64874;HTU21D;51367;45.204;38.576;2022-12-07T11:16:28;2.91;80.47
64874;HTU21D;51367;45.204;38.576;2022-12-07T11:21:58;2.93;80.48
64874;HTU21D;51367;45.204;38.576;2022-12-07T11:27:49;3.00;80.63
64874;HTU21D;51367;45.204;38.576;2022-12-07T11:30:24;3.04;80.66
64874;HTU21D;51367;45.204;38.576;2022-12-07T11:33:04;3.11;80.63
64874;HTU21D;51367;45.204;38.576;2022-12-07T11:40:37;3.19;80.24
64874;HTU21D;51367;45.204;38.576;2022-12-07T11:43:05;3.23;80.20
64874;HTU21D;51367;45.204;38.576;2022-12-07T11:45:34;3.25;79.94
64874;HTU21D;51367;45.204;38.576;2022-12-07T12:03:52;3.38;79.36
64874;HTU21D;51367;45.204;38.576;2022-12-07T12:06:20;3.40;79.42
64874;HTU21D;51367;45.204;38.576;2022-12-07T12:09:03;3.41;79.53
64874;HTU21D;51367;45.204;38.576;2022-12-07T12:12:00;3.42;79.59
64874;HTU21D;51367;45.204;38.576;2022-12-07T12:22:39;3.34;79.28
64874;HTU21D;51367;45.204;38.576;2022-12-07T12:25:31;3.32;79.35
64874;HTU21D;51367;45.204;38.576;2022-12-07T12:28:00;3.32;79.45
64874;HTU21D;51367;45.204;38.576;2022-12-07T12:33:05;3.33;79.50
64874;HTU21D;51367;45.204;38.576;2022-12-07T12:35:37;3.34;79.57
64874;HTU21D;51367;45.204;38.576;2022-12-07T12:38:33;3.36;79.60
64874;HTU21D;51367;45.204;38.576;2022-12-07T12:41:00;3.35;79.56
64874;HTU21D;51367;45.204;38.576;2022-12-07T12:43:59;3.35;79.58
64874;HTU21D;51367;45.204;38.576;2022-12-07T12:54:34;3.36;79.47
64874;HTU21D;51367;45.204;38.576;2022-12-07T12:57:17;3.36;79.50
64874;HTU21D;51367;45.204;38.576;2022-12-07T13:00:21;3.35;79.56
64874;HTU21D;51367;45.204;38.576;2022-12-07T13:02:55;3.36;79.58
64874;HTU21D;51367;45.204;38.576;2022-12-07T13:05:29;3.36;79.57
64874;HTU21D;51367;45.204;38.576;2022-12-07T13:08:05;3.35;79.64
64874;HTU21D;51367;45.204;38.576;2022-12-07T13:10:43;3.35;79.65
64874;HTU21D;51367;45.204;38.576;2022-12-07T13:15:54;3.36;79.59
64874;HTU21D;51367;45.204;38.576;2022-12-07T13:20:57;3.38;79.57
64874;HTU21D;51367;45.204;38.576;2022-12-07T13:26:15;3.39;79.56
64874;HTU21D;51367;45.204;38.576;2022-12-07T13:28:52;3.38;79.53
64874;HTU21D;51367;45.204;38.576;2022-12-07T13:31:34;3.36;79.50
64874;HTU21D;51367;45.204;38.576;2022-12-07T13:34:03;3.35;79.50
64874;HTU21D;51367;45.204;38.576;2022-12-07T13:36:33;3.35;79.53
64874;HTU21D;51367;45.204;38.576;2022-12-07T13:39:18;3.36;79.55
64874;HTU21D;51367;45.204;38.576;2022-12-07T13:41:45;3.36;79.55
64874;HTU21D;51367;45.204;38.576;2022-12-07T13:44:16;3.34;79.51
64874;HTU21D;51367;45.204;38.576;2022-12-07T13:49:32;3.35;79.54
64874;HTU21D;51367;45.204;38.576;2022-12-07T13:52:18;3.35;79.56
64874;HTU21D;51367;45.204;38.576;2022-12-07T13:57:29;3.36;79.58
64874;HTU21D;51367;45.204;38.576;2022-12-07T14:00:03;3.35;79.59
64874;HTU21D;51367;45.204;38.576;2022-12-07T14:02:32;3.36;79.60
64874;HTU21D;51367;45.204;38.576;2022-12-07T14:05:15;3.36;79.59
64874;HTU21D;51367;45.204;38.576;2022-12-07T14:10:52;3.33;79.53
64874;HTU21D;51367;45.204;38.576;2022-12-07T14:13:37;3.32;79.56
64874;HTU21D;51367;45.204;38.576;2022-12-07T14:16:25;3.32;79.59
64874;HTU21D;51367;45.204;38.576;2022-12-07T14:18:54;3.30;79.60
64874;HTU21D;51367;45.204;38.576;2022-12-07T14:21:23;3.30;79.63
64874;HTU21D;51367;45.204;38.576;2022-12-07T14:24:16;3.28;79.66
64874;HTU21D;51367;45.204;38.576;2022-12-07T14:26:48;3.29;79.68
64874;HTU21D;51367;45.204;38.576;2022-12-07T14:31:53;3.27;79.67
64874;HTU21D;51367;45.204;38.576;2022-12-07T14:34:20;3.27;79.70
64874;HTU21D;51367;45.204;38.576;2022-12-07T14:36:47;3.27;79.72
64874;HTU21D;51367;45.204;38.576;2022-12-07T14:39:13;3.26;79.75
64874;HTU21D;51367;45.204;38.576;2022-12-07T14:41:39;3.26;79.78
64874;HTU21D;51367;45.204;38.576;2022-12-07T14:44:19;3.25;79.82
64874;HTU21D;51367;45.204;38.576;2022-12-07T14:46:47;3.25;79.85
64874;HTU21D;51367;45.204;38.576;2022-12-07T14:49:13;3.26;79.87
64874;HTU21D;51367;45.204;38.576;2022-12-07T14:51:41;3.27;79.87
64874;HTU21D;51367;45.204;38.576;2022-12-07T14:54:14;3.27;79.88
64874;HTU21D;51367;45.204;38.576;2022-12-07T14:56:41;3.27;79.89
64874;HTU21D;51367;45.204;38.576;2022-12-07T14:59:07;3.27;79.88
64874;HTU21D;51367;45.204;38.576;2022-12-07T15:01:33;3.28;79.89
64874;HTU21D;51367;45.204;38.576;2022-12-07T15:03:59;3.27;79.91
64874;HTU21D;51367;45.204;38.576;2022-12-07T15:06:25;3.27;79.90
64874;HTU21D;51367;45.204;38.576;2022-12-07T15:08:51;3.27;79.93
64874;HTU21D;51367;45.204;38.576;2022-12-07T15:11:18;3.25;79.97
64874;HTU21D;51367;45.204;38.576;2022-12-07T15:13:44;3.25;79.98
64874;HTU21D;51367;45.204;38.576;2022-12-07T15:16:29;3.26;79.97
64874;HTU21D;51367;45.204;38.576;2022-12-07T15:18:55;3.25;79.95
64874;HTU21D;51367;45.204;38.576;2022-12-07T15:21:20;3.25;79.95
64874;HTU21D;51367;45.204;38.576;2022-12-07T15:23:47;3.25;79.95
64874;HTU21D;51367;45.204;38.576;2022-12-07T15:26:13;3.23;79.95
64874;HTU21D;51367;45.204;38.576;2022-12-07T15:28:40;3.23;79.98
64874;HTU21D;51367;45.204;38.576;2022-12-07T15:31:14;3.23;80.00
64874;HTU21D;51367;45.204;38.576;2022-12-07T15:33:40;3.20;80.04
64874;HTU21D;51367;45.204;38.576;2022-12-07T15:36:06;3.21;80.03
64874;HTU21D;51367;45.204;38.576;2022-12-07T15:38:33;3.21;80.03
64874;HTU21D;51367;45.204;38.576;2022-12-07T15:40:59;3.23;80.01
64874;HTU21D;51367;45.204;38.576;2022-12-07T15:43:25;3.21;79.98
64874;HTU21D;51367;45.204;38.576;2022-12-07T15:46:09;3.21;79.94
64874;HTU21D;51367;45.204;38.576;2022-12-07T15:48:35;3.21;79.91
64874;HTU21D;51367;45.204;38.576;2022-12-07T15:51:05;3.21;79.90
64874;HTU21D;51367;45.204;38.576;2022-12-07T15:53:32;3.21;79.88
64874;HTU21D;51367;45.204;38.576;2022-12-07T15:55:59;3.21;79.86
64874;HTU21D;51367;45.204;38.576;2022-12-07T15:58:25;3.19;79.84
64874;HTU21D;51367;45.204;38.576;2022-12-07T16:00:51;3.20;79.82
64874;HTU21D;51367;45.204;38.576;2022-12-07T16:03:17;3.23;79.79
64874;HTU21D;51367;45.204;38.576;2022-12-07T16:05:49;3.19;79.78
64874;HTU21D;51367;45.204;38.576;2022-12-07T16:08:15;3.21;79.75
64874;HTU21D;51367;45.204;38.576;2022-12-07T16:10:41;3.21;79.73
64874;HTU21D;51367;45.204;38.576;2022-12-07T16:13:11;3.19;79.69
64874;HTU21D;51367;45.204;38.576;2022-12-07T16:15:42;3.21;79.69
64874;HTU21D;51367;45.204;38.576;2022-12-07T16:18:08;3.20;79.66
64874;HTU21D;51367;45.204;38.576;2022-12-07T16:20:34;3.20;79.65
64874;HTU21D;51367;45.204;38.576;2022-12-07T16:23:00;3.20;79.64
64874;HTU21D;51367;45.204;38.576;2022-12-07T16:25:26;3.20;79.62
64874;HTU21D;51367;45.204;38.576;2022-12-07T16:27:52;3.20;79.60
64874;HTU21D;51367;45.204;38.576;2022-12-07T16:30:19;3.21;79.51
64874;HTU21D;51367;45.204;38.576;2022-12-07T16:32:45;3.20;79.46
64874;HTU21D;51367;45.204;38.576;2022-12-07T16:35:11;3.21;79.46
64874;HTU21D;51367;45.204;38.576;2022-12-07T16:37:38;3.19;79.46
64874;HTU21D;51367;45.204;38.576;2022-12-07T16:40:05;3.20;79.37
64874;HTU21D;51367;45.204;38.576;2022-12-07T16:42:34;3.19;79.25
64874;HTU21D;51367;45.204;38.576;2022-12-07T16:45:01;3.20;79.14
64874;HTU21D;51367;45.204;38.576;2022-12-07T16:47:28;3.21;79.05
64874;HTU21D;51367;45.204;38.576;2022-12-07T16:49:54;3.21;78.96
64874;HTU21D;51367;45.204;38.576;2022-12-07T16:52:21;3.21;78.75
64874;HTU21D;51367;45.204;38.576;2022-12-07T16:54:48;3.23;78.73
64874;HTU21D;51367;45.204;38.576;2022-12-07T16:57:15;3.24;78.53
64874;HTU21D;51367;45.204;38.576;2022-12-07T16:59:41;3.26;78.27
64874;HTU21D;51367;45.204;38.576;2022-12-07T17:02:10;3.26;78.25
64874;HTU21D;51367;45.204;38.576;2022-12-07T17:04:37;3.27;78.16
64874;HTU21D;51367;45.204;38.576;2022-12-07T17:07:05;3.28;78.13
64874;HTU21D;51367;45.204;38.576;2022-12-07T17:09:31;3.26;77.98
64874;HTU21D;51367;45.204;38.576;2022-12-07T17:11:57;3.27;77.87
64874;HTU21D;51367;45.204;38.576;2022-12-07T17:14:23;3.28;77.86
64874;HTU21D;51367;45.204;38.576;2022-12-07T17:17:08;3.28;77.87
64874;HTU21D;51367;45.204;38.576;2022-12-07T17:19:34;3.28;77.91
64874;HTU21D;51367;45.204;38.576;2022-12-07T17:22:00;3.28;77.83
64874;HTU21D;51367;45.204;38.576;2022-12-07T17:24:26;3.28;77.79
64874;HTU21D;51367;45.204;38.576;2022-12-07T17:26:52;3.29;77.63
64874;HTU21D;51367;45.204;38.576;2022-12-07T17:29:18;3.28;77.69
64874;HTU21D;51367;45.204;38.576;2022-12-07T17:31:46;3.26;77.56
64874;HTU21D;51367;45.204;38.576;2022-12-07T17:34:14;3.26;77.60
64874;HTU21D;51367;45.204;38.576;2022-12-07T17:36:41;3.25;77.66
64874;HTU21D;51367;45.204;38.576;2022-12-07T17:39:11;3.25;77.54
64874;HTU21D;51367;45.204;38.576;2022-12-07T17:41:38;3.24;77.31
64874;HTU21D;51367;45.204;38.576;2022-12-07T17:44:23;3.25;77.15
64874;HTU21D;51367;45.204;38.576;2022-12-07T17:46:51;3.24;77.29
64874;HTU21D;51367;45.204;38.576;2022-12-07T17:49:22;3.21;77.16
64874;HTU21D;51367;45.204;38.576;2022-12-07T17:51:51;3.21;76.94
64874;HTU21D;51367;45.204;38.576;2022-12-07T17:54:35;3.19;76.97
64874;HTU21D;51367;45.204;38.576;2022-12-07T17:57:01;3.19;77.02
64874;HTU21D;51367;45.204;38.576;2022-12-07T17:59:27;3.17;77.09
64874;HTU21D;51367;45.204;38.576;2022-12-07T18:01:53;3.16;77.03
64874;HTU21D;51367;45.204;38.576;2022-12-07T18:04:19;3.16;77.02